createdAt,value
2018-06-16T00:00:05.526Z,62
2018-06-16T00:01:07.837Z,62
2018-06-16T00:02:09.833Z,62
2018-06-16T00:03:12.165Z,62
2018-06-16T00:04:14.116Z,62
2018-06-16T00:05:16.407Z,62
2018-06-16T00:06:18.415Z,63
2018-06-16T00:07:20.399Z,62
2018-06-16T00:08:23.067Z,63
2018-06-16T00:09:25.747Z,63
2018-06-16T00:10:27.746Z,63
2018-06-16T00:11:29.753Z,63
2018-06-16T00:12:31.753Z,63
2018-06-16T00:13:34.325Z,63
2018-06-16T00:14:36.604Z,63
2018-06-16T00:15:38.872Z,63
2018-06-16T00:16:40.889Z,63
2018-06-16T00:17:43.167Z,63
2018-06-16T00:18:45.152Z,63
2018-06-16T00:19:47.151Z,63
2018-06-16T00:20:49.449Z,64
2018-06-16T00:21:51.447Z,64
2018-06-16T00:22:53.449Z,64
2018-06-16T00:23:55.443Z,64
2018-06-16T00:24:57.446Z,64
2018-06-16T00:25:59.436Z,64
2018-06-16T00:27:01.437Z,64
2018-06-16T00:28:03.442Z,64
2018-06-16T00:29:05.444Z,65
2018-06-16T00:30:07.720Z,65
2018-06-16T00:31:09.712Z,65
2018-06-16T00:32:11.712Z,65
2018-06-16T00:33:13.706Z,66
2018-06-16T00:34:15.703Z,65
2018-06-16T00:35:17.703Z,65
2018-06-16T00:36:19.708Z,65
2018-06-16T00:37:21.704Z,66
2018-06-16T00:38:23.715Z,66
2018-06-16T00:39:25.989Z,67
2018-06-16T00:40:27.982Z,67
2018-06-16T00:41:29.981Z,66
2018-06-16T00:42:31.983Z,66
2018-06-16T00:43:33.990Z,66
2018-06-16T00:44:35.983Z,66
2018-06-16T00:45:37.982Z,67
2018-06-16T00:46:39.986Z,66
2018-06-16T00:47:41.970Z,66
2018-06-16T00:48:44.257Z,67
2018-06-16T00:49:46.270Z,67
2018-06-16T00:50:48.270Z,67
2018-06-16T00:51:50.273Z,67
2018-06-16T00:52:53.070Z,67
2018-06-16T00:53:54.991Z,67
2018-06-16T00:54:56.995Z,68
2018-06-16T00:55:59.262Z,68
2018-06-16T00:57:01.278Z,69
2018-06-16T00:58:03.274Z,68
2018-06-16T00:59:05.262Z,68
2018-06-16T01:00:07.264Z,68
2018-06-16T01:01:09.258Z,68
2018-06-16T01:02:11.546Z,68
2018-06-16T01:03:13.549Z,68
2018-06-16T01:04:15.549Z,68
2018-06-16T01:05:17.558Z,69
2018-06-16T01:06:19.556Z,69
2018-06-16T01:07:21.560Z,69
2018-06-16T01:08:23.562Z,69
2018-06-16T01:09:25.840Z,69
2018-06-16T01:10:27.845Z,69
2018-06-16T01:11:30.120Z,69
2018-06-16T01:12:32.120Z,69
2018-06-16T01:13:34.129Z,69
2018-06-16T01:14:36.122Z,69
2018-06-16T01:15:38.419Z,69
2018-06-16T01:16:40.411Z,70
2018-06-16T01:17:42.414Z,69
2018-06-16T01:18:44.792Z,69
2018-06-16T01:19:46.799Z,69
2018-06-16T01:20:49.072Z,69
2018-06-16T01:21:51.354Z,69
2018-06-16T01:22:53.728Z,70
2018-06-16T01:23:55.733Z,70
2018-06-16T01:24:57.729Z,69
2018-06-16T01:25:59.732Z,70
2018-06-16T01:27:01.735Z,70
2018-06-16T01:28:03.727Z,70
2018-06-16T01:29:05.727Z,70
2018-06-16T01:30:07.742Z,70
2018-06-16T01:31:09.722Z,70
2018-06-16T01:32:11.734Z,70
2018-06-16T01:33:13.727Z,70
2018-06-16T01:34:15.731Z,70
2018-06-16T01:35:17.736Z,70
2018-06-16T01:36:19.722Z,70
2018-06-16T01:37:21.723Z,70
2018-06-16T01:38:24.006Z,69
2018-06-16T01:39:25.984Z,70
2018-06-16T01:40:28.288Z,70
2018-06-16T01:41:30.944Z,70
2018-06-16T01:42:32.948Z,70
2018-06-16T01:43:34.950Z,70
2018-06-16T01:44:36.955Z,70
2018-06-16T01:45:38.956Z,70
2018-06-16T01:46:40.951Z,69
2018-06-16T01:47:42.952Z,70
2018-06-16T01:48:44.959Z,70
2018-06-16T01:49:46.962Z,70
2018-06-16T01:50:49.234Z,70
2018-06-16T01:51:51.240Z,69
2018-06-16T01:52:53.532Z,69
2018-06-16T01:53:55.512Z,70
2018-06-16T01:54:57.902Z,69
2018-06-16T01:55:59.912Z,70
2018-06-16T01:57:01.913Z,70
2018-06-16T01:58:04.189Z,70
2018-06-16T01:59:06.183Z,69
2018-06-16T02:00:08.188Z,69
2018-06-16T02:01:10.170Z,69
2018-06-16T02:02:12.476Z,69
2018-06-16T02:03:14.485Z,69
2018-06-16T02:04:16.866Z,69
2018-06-16T02:05:18.854Z,69
2018-06-16T02:06:20.859Z,69
2018-06-16T02:07:22.854Z,69
2018-06-16T02:08:24.852Z,70
2018-06-16T02:09:26.849Z,70
2018-06-16T02:10:29.142Z,70
2018-06-16T02:11:31.713Z,69
2018-06-16T02:12:34.085Z,70
2018-06-16T02:13:36.091Z,70
2018-06-16T02:14:38.096Z,70
2018-06-16T02:15:40.760Z,70
2018-06-16T02:16:42.762Z,70
2018-06-16T02:17:44.757Z,70
2018-06-16T02:18:47.146Z,70
2018-06-16T02:19:49.133Z,70
2018-06-16T02:20:51.131Z,70
2018-06-16T02:21:53.151Z,70
2018-06-16T02:22:55.134Z,70
2018-06-16T02:23:57.132Z,70
2018-06-16T02:24:59.132Z,71
2018-06-16T02:26:01.409Z,71
2018-06-16T02:27:03.692Z,71
2018-06-16T02:28:05.696Z,71
2018-06-16T02:29:07.682Z,71
2018-06-16T02:30:09.679Z,71
2018-06-16T02:31:11.963Z,71
2018-06-16T02:32:13.964Z,71
2018-06-16T02:33:16.629Z,71
2018-06-16T02:34:18.634Z,72
2018-06-16T02:35:20.632Z,72
2018-06-16T02:36:23.593Z,72
2018-06-16T02:37:25.865Z,72
2018-06-16T02:38:27.865Z,72
2018-06-16T02:39:29.878Z,72
2018-06-16T02:40:32.266Z,72
2018-06-16T02:41:34.565Z,72
2018-06-16T02:42:36.565Z,72
2018-06-16T02:43:38.566Z,72
2018-06-16T02:44:40.586Z,72
2018-06-16T02:45:42.861Z,73
2018-06-16T02:46:45.172Z,73
2018-06-16T02:47:47.445Z,73
2018-06-16T02:48:50.034Z,73
2018-06-16T02:49:52.876Z,73
2018-06-16T02:50:55.275Z,73
2018-06-16T02:51:57.269Z,73
2018-06-16T02:52:59.588Z,73
2018-06-16T02:54:01.576Z,73
2018-06-16T02:55:03.592Z,73
2018-06-16T02:56:05.864Z,73
2018-06-16T02:57:08.148Z,73
2018-06-16T02:58:10.425Z,73
2018-06-16T02:59:12.708Z,73
2018-06-16T03:00:14.713Z,73
2018-06-16T03:01:17.002Z,73
2018-06-16T03:02:19.005Z,73
2018-06-16T03:03:21.114Z,72
2018-06-16T03:04:22.993Z,73
2018-06-16T03:05:24.990Z,73
2018-06-16T03:06:27.281Z,73
2018-06-16T03:07:29.297Z,73
2018-06-16T03:08:31.567Z,73
2018-06-16T03:09:33.568Z,73
2018-06-16T03:10:35.954Z,73
2018-06-16T03:11:38.228Z,73
2018-06-16T03:12:40.814Z,73
2018-06-16T03:13:43.229Z,73
2018-06-16T03:14:45.762Z,73
2018-06-16T03:15:47.779Z,73
2018-06-16T03:16:50.437Z,73
2018-06-16T03:17:52.441Z,73
2018-06-16T03:18:54.433Z,72
2018-06-16T03:19:56.429Z,73
2018-06-16T03:20:58.426Z,73
2018-06-16T03:22:00.806Z,73
2018-06-16T03:23:02.805Z,73
2018-06-16T03:24:04.812Z,73
2018-06-16T03:25:07.183Z,73
2018-06-16T03:26:09.187Z,73
2018-06-16T03:27:11.185Z,72
2018-06-16T03:28:13.468Z,72
2018-06-16T03:29:16.130Z,73
2018-06-16T03:30:18.516Z,72
2018-06-16T03:31:20.801Z,72
2018-06-16T03:32:22.799Z,72
2018-06-16T03:33:25.073Z,72
2018-06-16T03:34:27.077Z,72
2018-06-16T03:35:29.061Z,72
2018-06-16T03:36:31.348Z,72
2018-06-16T03:37:33.631Z,72
2018-06-16T03:38:35.638Z,72
2018-06-16T03:39:37.634Z,72
2018-06-16T03:40:39.633Z,72
2018-06-16T03:41:41.626Z,72
2018-06-16T03:42:43.635Z,72
2018-06-16T03:43:45.627Z,72
2018-06-16T03:44:47.677Z,72
2018-06-16T03:45:49.630Z,72
2018-06-16T03:46:51.624Z,72
2018-06-16T03:47:53.624Z,72
2018-06-16T03:48:55.922Z,72
2018-06-16T03:49:57.900Z,72
2018-06-16T03:51:00.290Z,72
2018-06-16T03:52:02.304Z,72
2018-06-16T03:53:04.979Z,72
2018-06-16T03:54:06.978Z,72
2018-06-16T03:55:08.970Z,72
2018-06-16T03:56:11.641Z,72
2018-06-16T03:57:13.633Z,72
2018-06-16T03:58:15.634Z,72
2018-06-16T03:59:17.639Z,72
2018-06-16T04:00:19.639Z,72
2018-06-16T04:01:21.632Z,72
2018-06-16T04:02:23.631Z,72
2018-06-16T04:03:25.625Z,72
2018-06-16T04:04:28.007Z,72
2018-06-16T04:05:30.006Z,72
2018-06-16T04:06:32.013Z,72
2018-06-16T04:07:34.019Z,72
2018-06-16T04:08:36.007Z,72
2018-06-16T04:09:38.006Z,72
2018-06-16T04:10:40.394Z,71
2018-06-16T04:11:42.666Z,72
2018-06-16T04:12:44.662Z,72
2018-06-16T04:13:46.659Z,72
2018-06-16T04:14:48.942Z,71
2018-06-16T04:15:50.932Z,71
2018-06-16T04:16:52.929Z,71
2018-06-16T04:17:54.940Z,71
2018-06-16T04:18:57.602Z,71
2018-06-16T04:19:59.880Z,71
2018-06-16T04:21:01.885Z,71
2018-06-16T04:22:03.882Z,71
2018-06-16T04:23:05.882Z,71
2018-06-16T04:24:08.352Z,71
2018-06-16T04:25:10.362Z,71
2018-06-16T04:26:12.349Z,71
2018-06-16T04:27:14.629Z,71
2018-06-16T04:28:16.627Z,71
2018-06-16T04:29:18.904Z,71
2018-06-16T04:30:20.904Z,71
2018-06-16T04:31:22.902Z,71
2018-06-16T04:32:24.904Z,71
2018-06-16T04:33:26.892Z,71
2018-06-16T04:34:28.881Z,71
2018-06-16T04:35:30.879Z,71
2018-06-16T04:36:33.169Z,71
2018-06-16T04:37:35.450Z,71
2018-06-16T04:38:37.447Z,71
2018-06-16T04:39:39.437Z,71
2018-06-16T04:40:41.442Z,70
2018-06-16T04:41:43.435Z,70
2018-06-16T04:42:45.440Z,70
2018-06-16T04:43:47.439Z,70
2018-06-16T04:44:49.437Z,70
2018-06-16T04:45:51.533Z,70
2018-06-16T04:46:53.438Z,70
2018-06-16T04:47:55.499Z,70
2018-06-16T04:48:57.429Z,71
2018-06-16T04:49:59.422Z,70
2018-06-16T04:51:01.708Z,70
2018-06-16T04:52:04.091Z,70
2018-06-16T04:53:06.093Z,70
2018-06-16T04:54:08.090Z,70
2018-06-16T04:55:10.143Z,70
2018-06-16T04:56:12.128Z,70
2018-06-16T04:57:14.375Z,70
2018-06-16T04:58:16.366Z,70
2018-06-16T04:59:18.359Z,70
2018-06-16T05:00:20.369Z,70
2018-06-16T05:01:22.365Z,69
2018-06-16T05:02:24.645Z,69
2018-06-16T05:03:26.917Z,69
2018-06-16T05:04:28.913Z,69
2018-06-16T05:05:31.585Z,69
2018-06-16T05:06:33.583Z,69
2018-06-16T05:07:35.587Z,69
2018-06-16T05:08:37.603Z,69
2018-06-16T05:09:39.596Z,69
2018-06-16T05:10:41.874Z,69
2018-06-16T05:11:43.872Z,68
2018-06-16T05:12:45.880Z,69
2018-06-16T05:13:47.882Z,68
2018-06-16T05:14:49.873Z,68
2018-06-16T05:15:51.879Z,68
2018-06-16T05:16:53.912Z,68
2018-06-16T05:17:56.254Z,68
2018-06-16T05:18:58.255Z,68
2018-06-16T05:20:00.266Z,68
2018-06-16T05:21:02.264Z,68
2018-06-16T05:22:04.260Z,68
2018-06-16T05:23:06.537Z,68
2018-06-16T05:24:08.863Z,68
2018-06-16T05:25:10.847Z,68
2018-06-16T05:26:13.233Z,68
2018-06-16T05:27:15.228Z,68
2018-06-16T05:28:17.618Z,68
2018-06-16T05:29:19.888Z,68
2018-06-16T05:30:21.895Z,68
2018-06-16T05:31:23.904Z,68
2018-06-16T05:32:25.910Z,68
2018-06-16T05:33:27.915Z,68
2018-06-16T05:34:29.915Z,68
2018-06-16T05:35:32.579Z,68
2018-06-16T05:36:34.577Z,68
2018-06-16T05:37:36.861Z,68
2018-06-16T05:38:38.859Z,68
2018-06-16T05:39:40.853Z,68
2018-06-16T05:40:42.869Z,68
2018-06-16T05:41:44.869Z,68
2018-06-16T05:42:46.866Z,68
2018-06-16T05:43:48.867Z,68
2018-06-16T05:44:50.865Z,68
2018-06-16T05:45:53.151Z,68
2018-06-16T05:46:55.147Z,68
2018-06-16T05:47:57.144Z,68
2018-06-16T05:48:59.158Z,68
2018-06-16T05:50:01.148Z,68
2018-06-16T05:51:03.153Z,68
2018-06-16T05:52:05.150Z,68
2018-06-16T05:53:07.157Z,67
2018-06-16T05:54:09.161Z,67
2018-06-16T05:55:11.155Z,67
2018-06-16T05:56:13.160Z,67
2018-06-16T05:57:15.161Z,67
2018-06-16T05:58:17.157Z,67
2018-06-16T05:59:19.163Z,67
2018-06-16T06:00:21.157Z,67
2018-06-16T06:01:23.161Z,67
2018-06-16T06:02:25.152Z,67
2018-06-16T06:03:27.153Z,67
2018-06-16T06:04:29.164Z,67
2018-06-16T06:05:31.163Z,67
2018-06-16T06:06:33.167Z,66
2018-06-16T06:07:35.176Z,66
2018-06-16T06:08:37.190Z,66
2018-06-16T06:09:39.190Z,66
2018-06-16T06:10:41.194Z,66
2018-06-16T06:11:43.213Z,66
2018-06-16T06:12:45.489Z,66
2018-06-16T06:13:47.495Z,65
2018-06-16T06:14:49.493Z,65
2018-06-16T06:15:51.577Z,65
2018-06-16T06:16:53.884Z,66
2018-06-16T06:17:55.884Z,65
2018-06-16T06:18:58.564Z,64
2018-06-16T06:20:00.570Z,65
2018-06-16T06:21:02.596Z,64
2018-06-16T06:22:04.595Z,64
2018-06-16T06:23:06.586Z,64
2018-06-16T06:24:08.589Z,64
2018-06-16T06:25:11.291Z,64
2018-06-16T06:26:13.287Z,64
2018-06-16T06:27:15.296Z,63
2018-06-16T06:28:17.962Z,64
2018-06-16T06:29:19.972Z,64
2018-06-16T06:30:22.240Z,64
2018-06-16T06:31:24.628Z,63
2018-06-16T06:32:26.639Z,63
2018-06-16T06:33:28.929Z,62
2018-06-16T06:34:31.312Z,62
2018-06-16T06:35:33.608Z,63
2018-06-16T06:36:35.994Z,62
2018-06-16T06:37:38.004Z,62
2018-06-16T06:38:40.009Z,62
2018-06-16T06:39:42.011Z,62
2018-06-16T06:40:44.296Z,62
2018-06-16T06:41:46.302Z,63
2018-06-16T06:42:48.297Z,62
2018-06-16T06:43:50.314Z,63
2018-06-16T06:44:52.309Z,62
2018-06-16T06:45:54.705Z,62
2018-06-16T06:46:56.994Z,62
2018-06-16T06:47:58.990Z,62
2018-06-16T06:49:01.002Z,62
2018-06-16T06:50:03.004Z,62
2018-06-16T06:51:05.011Z,62
2018-06-16T06:52:07.330Z,62
2018-06-16T06:53:09.327Z,61
2018-06-16T06:54:11.338Z,61
2018-06-16T06:55:13.727Z,61
2018-06-16T06:56:15.734Z,61
2018-06-16T06:57:18.024Z,61
2018-06-16T06:58:20.023Z,61
2018-06-16T06:59:22.037Z,61
2018-06-16T07:00:24.335Z,60
2018-06-16T07:01:26.338Z,60
2018-06-16T07:02:28.349Z,60
2018-06-16T07:03:30.624Z,60
2018-06-16T07:04:32.637Z,60
2018-06-16T07:05:34.642Z,59
2018-06-16T07:06:36.647Z,59
2018-06-16T07:07:38.658Z,60
2018-06-16T07:08:40.662Z,59
2018-06-16T07:09:42.672Z,60
2018-06-16T07:10:44.788Z,59
2018-06-16T07:11:46.721Z,58
2018-06-16T07:12:49.184Z,59
2018-06-16T07:13:51.588Z,59
2018-06-16T07:14:53.601Z,59
2018-06-16T07:15:55.602Z,58
2018-06-16T07:16:57.609Z,58
2018-06-16T07:17:59.629Z,58
2018-06-16T07:19:01.638Z,58
2018-06-16T07:20:03.645Z,58
2018-06-16T07:21:05.657Z,57
2018-06-16T07:22:07.664Z,57
2018-06-16T07:23:09.671Z,57
2018-06-16T07:24:12.059Z,57
2018-06-16T07:25:14.075Z,57
2018-06-16T07:26:16.090Z,58
2018-06-16T07:27:18.476Z,57
2018-06-16T07:28:20.763Z,58
2018-06-16T07:29:23.270Z,57
2018-06-16T07:30:25.522Z,56
2018-06-16T07:31:27.537Z,57
2018-06-16T07:32:29.553Z,57
2018-06-16T07:33:31.559Z,57
2018-06-16T07:34:33.580Z,56
2018-06-16T07:35:35.860Z,56
2018-06-16T07:36:37.868Z,56
2018-06-16T07:37:39.874Z,56
2018-06-16T07:38:41.882Z,55
2018-06-16T07:39:43.882Z,55
2018-06-16T07:40:46.167Z,55
2018-06-16T07:41:48.179Z,54
2018-06-16T07:42:50.186Z,55
2018-06-16T07:43:52.182Z,54
2018-06-16T07:44:54.472Z,54
2018-06-16T07:45:56.478Z,55
2018-06-16T07:46:58.490Z,54
2018-06-16T07:48:00.496Z,55
2018-06-16T07:49:02.794Z,54
2018-06-16T07:50:04.808Z,53
2018-06-16T07:51:07.081Z,53
2018-06-16T07:52:09.374Z,53
2018-06-16T07:53:11.767Z,53
2018-06-16T07:54:14.059Z,53
2018-06-16T07:55:16.071Z,53
2018-06-16T07:56:18.089Z,54
2018-06-16T07:57:20.089Z,54
2018-06-16T07:58:22.406Z,54
2018-06-16T07:59:24.397Z,54
2018-06-16T08:00:26.414Z,53
2018-06-16T08:01:28.415Z,53
2018-06-16T08:02:30.806Z,53
2018-06-16T08:03:32.814Z,53
2018-06-16T08:04:34.829Z,54
2018-06-16T08:05:37.496Z,54
2018-06-16T08:06:39.563Z,53
2018-06-16T08:07:41.840Z,53
2018-06-16T08:08:43.852Z,53
2018-06-16T08:09:45.866Z,53
2018-06-16T08:10:47.872Z,53
2018-06-16T08:11:49.873Z,53
2018-06-16T08:12:51.928Z,53
2018-06-16T08:13:54.281Z,53
2018-06-16T08:14:56.289Z,53
2018-06-16T08:15:58.303Z,53
2018-06-16T08:17:00.300Z,53
2018-06-16T08:18:02.646Z,53
2018-06-16T08:19:04.917Z,52
2018-06-16T08:20:07.224Z,54
2018-06-16T08:21:09.234Z,53
2018-06-16T08:22:11.238Z,53
2018-06-16T08:23:13.636Z,53
2018-06-16T08:24:15.636Z,53
2018-06-16T08:25:17.649Z,52
2018-06-16T08:26:20.436Z,52
2018-06-16T08:27:22.633Z,52
2018-06-16T08:28:24.921Z,53
2018-06-16T08:29:26.934Z,53
2018-06-16T08:30:28.937Z,53
2018-06-16T08:31:30.966Z,53
2018-06-16T08:32:33.551Z,53
2018-06-16T08:33:35.571Z,53
2018-06-16T08:34:37.962Z,53
2018-06-16T08:35:40.359Z,52
2018-06-16T08:36:42.361Z,52
2018-06-16T08:37:44.368Z,52
2018-06-16T08:38:46.358Z,52
2018-06-16T08:39:48.379Z,51
2018-06-16T08:40:50.664Z,50
2018-06-16T08:41:52.680Z,50
2018-06-16T08:42:54.681Z,50
2018-06-16T08:43:56.983Z,49
2018-06-16T08:44:58.995Z,49
2018-06-16T08:46:01.002Z,49
2018-06-16T08:47:03.010Z,48
2018-06-16T08:48:05.020Z,48
2018-06-16T08:49:07.015Z,48
2018-06-16T08:50:09.027Z,49
2018-06-16T08:51:11.036Z,49
2018-06-16T08:52:13.041Z,48
2018-06-16T08:53:15.059Z,49
2018-06-16T08:54:17.344Z,49
2018-06-16T08:55:19.418Z,48
2018-06-16T08:56:21.363Z,48
2018-06-16T08:57:23.375Z,47
2018-06-16T08:58:25.665Z,47
2018-06-16T08:59:28.053Z,48
2018-06-16T09:00:30.347Z,47
2018-06-16T09:01:32.746Z,47
2018-06-16T09:02:34.752Z,46
2018-06-16T09:03:36.771Z,46
2018-06-16T09:04:38.782Z,47
2018-06-16T09:05:40.795Z,47
2018-06-16T09:06:42.802Z,46
2018-06-16T09:07:44.816Z,46
2018-06-16T09:08:46.820Z,46
2018-06-16T09:09:49.121Z,46
2018-06-16T09:10:51.136Z,46
2018-06-16T09:11:53.688Z,46
2018-06-16T09:12:56.214Z,46
2018-06-16T09:13:58.238Z,46
2018-06-16T09:15:00.240Z,46
2018-06-16T09:16:02.253Z,45
2018-06-16T09:17:04.267Z,45
2018-06-16T09:18:06.575Z,44
2018-06-16T09:19:08.591Z,45
2018-06-16T09:20:10.880Z,45
2018-06-16T09:21:12.902Z,45
2018-06-16T09:22:14.908Z,44
2018-06-16T09:23:16.917Z,44
2018-06-16T09:24:18.936Z,44
2018-06-16T09:25:20.940Z,44
2018-06-16T09:26:22.952Z,45
2018-06-16T09:27:24.971Z,45
2018-06-16T09:28:26.973Z,44
2018-06-16T09:29:28.986Z,44
2018-06-16T09:30:31.010Z,44
2018-06-16T09:31:33.298Z,44
2018-06-16T09:32:35.585Z,44
2018-06-16T09:33:37.588Z,44
2018-06-16T09:34:39.600Z,44
2018-06-16T09:35:41.604Z,45
2018-06-16T09:36:44.007Z,44
2018-06-16T09:37:46.019Z,44
2018-06-16T09:38:48.026Z,44
2018-06-16T09:39:50.030Z,44
2018-06-16T09:40:52.045Z,44
2018-06-16T09:41:54.331Z,44
2018-06-16T09:42:56.344Z,48
2018-06-16T09:43:58.349Z,46
2018-06-16T09:45:00.363Z,46
2018-06-16T09:46:02.379Z,45
2018-06-16T09:47:04.386Z,46
2018-06-16T09:48:06.454Z,44
2018-06-16T09:49:08.707Z,43
2018-06-16T09:50:11.117Z,42
2018-06-16T09:51:13.121Z,43
2018-06-16T09:52:15.133Z,43
2018-06-16T09:53:17.154Z,43
2018-06-16T09:54:19.165Z,43
2018-06-16T09:55:21.478Z,43
2018-06-16T09:56:23.484Z,43
2018-06-16T09:57:25.501Z,43
2018-06-16T09:58:27.889Z,43
2018-06-16T09:59:29.907Z,44
2018-06-16T10:00:31.913Z,44
2018-06-16T10:01:33.928Z,44
2018-06-16T10:02:36.217Z,44
2018-06-16T10:03:38.234Z,43
2018-06-16T10:04:40.241Z,44
2018-06-16T10:05:42.536Z,43
2018-06-16T10:06:44.843Z,43
2018-06-16T10:07:46.862Z,43
2018-06-16T10:08:48.870Z,42
2018-06-16T10:09:50.879Z,43
2018-06-16T10:10:52.909Z,44
2018-06-16T10:11:54.923Z,44
2018-06-16T10:12:57.226Z,45
2018-06-16T10:13:59.337Z,43
2018-06-16T10:15:01.546Z,43
2018-06-16T10:16:04.255Z,45
2018-06-16T10:17:06.254Z,47
2018-06-16T10:18:08.274Z,44
2018-06-16T10:19:10.629Z,44
2018-06-16T10:20:12.628Z,43
2018-06-16T10:21:14.956Z,42
2018-06-16T10:22:16.962Z,42
2018-06-16T10:23:18.975Z,43
2018-06-16T10:24:20.988Z,44
2018-06-16T10:25:23.003Z,42
2018-06-16T10:26:25.021Z,42
2018-06-16T10:27:27.033Z,42
2018-06-16T10:28:29.049Z,43
2018-06-16T10:29:31.083Z,42
2018-06-16T10:30:33.084Z,41
2018-06-16T10:31:35.099Z,42
2018-06-16T10:32:37.107Z,42
2018-06-16T10:33:39.128Z,45
2018-06-16T10:34:41.138Z,44
2018-06-16T10:35:43.539Z,43
2018-06-16T10:36:46.228Z,43
2018-06-16T10:37:48.229Z,42
2018-06-16T10:38:50.232Z,41
2018-06-16T10:39:52.543Z,41
2018-06-16T10:40:54.559Z,41
2018-06-16T10:41:56.868Z,41
2018-06-16T10:42:58.891Z,41
2018-06-16T10:44:00.892Z,41
2018-06-16T10:45:02.906Z,40
2018-06-16T10:46:04.926Z,41
2018-06-16T10:47:06.936Z,47
2018-06-16T10:48:08.943Z,43
2018-06-16T10:49:10.962Z,40
2018-06-16T10:50:13.264Z,39
2018-06-16T10:51:15.274Z,39
2018-06-16T10:52:17.291Z,39
2018-06-16T10:53:19.321Z,39
2018-06-16T10:54:21.329Z,39
2018-06-16T10:55:23.345Z,39
2018-06-16T10:56:25.358Z,40
2018-06-16T10:57:27.371Z,41
2018-06-16T10:58:29.386Z,38
2018-06-16T10:59:31.399Z,38
2018-06-16T11:00:33.417Z,38
2018-06-16T11:01:35.430Z,40
2018-06-16T11:02:37.710Z,38
2018-06-16T11:03:39.736Z,38
2018-06-16T11:04:42.038Z,37
2018-06-16T11:05:44.047Z,37
2018-06-16T11:06:46.066Z,37
2018-06-16T11:07:48.084Z,36
2018-06-16T11:08:50.097Z,37
2018-06-16T11:09:52.111Z,38
2018-06-16T11:10:54.129Z,38
2018-06-16T11:11:56.150Z,38
2018-06-16T11:12:58.162Z,37
2018-06-16T11:14:00.169Z,38
2018-06-16T11:15:02.190Z,37
2018-06-16T11:16:04.208Z,37
2018-06-16T11:17:06.574Z,37
2018-06-16T11:18:08.598Z,38
2018-06-16T11:19:10.721Z,37
2018-06-16T11:20:12.621Z,37
2018-06-16T11:21:14.635Z,37
2018-06-16T11:22:16.648Z,38
2018-06-16T11:23:18.662Z,37
2018-06-16T11:24:20.672Z,38
2018-06-16T11:25:22.691Z,36
2018-06-16T11:26:24.715Z,35
2018-06-16T11:27:27.111Z,36
2018-06-16T11:28:29.126Z,37
2018-06-16T11:29:31.140Z,37
2018-06-16T11:30:33.191Z,37
2018-06-16T11:31:35.168Z,36
2018-06-16T11:32:37.466Z,36
2018-06-16T11:33:39.482Z,38
2018-06-16T11:34:42.106Z,35
2018-06-16T11:35:44.391Z,35
2018-06-16T11:36:46.408Z,33
2018-06-16T11:37:48.989Z,34
2018-06-16T11:38:51.001Z,33
2018-06-16T11:39:53.404Z,34
2018-06-16T11:40:55.477Z,34
2018-06-16T11:41:57.438Z,33
2018-06-16T11:42:59.451Z,33
2018-06-16T11:44:01.475Z,34
2018-06-16T11:45:03.786Z,33
2018-06-16T11:46:05.790Z,33
2018-06-16T11:47:07.807Z,34
2018-06-16T11:48:09.823Z,34
2018-06-16T11:49:11.837Z,34
2018-06-16T11:50:13.848Z,34
2018-06-16T11:51:15.862Z,34
2018-06-16T11:52:17.871Z,34
2018-06-16T11:53:19.892Z,33
2018-06-16T11:54:21.902Z,34
2018-06-16T11:55:23.922Z,33
2018-06-16T11:56:25.934Z,32
2018-06-16T11:57:27.958Z,33
2018-06-16T11:58:30.348Z,33
2018-06-16T11:59:32.381Z,33
2018-06-16T12:00:34.390Z,33
2018-06-16T12:01:36.408Z,34
2018-06-16T12:02:38.425Z,33
2018-06-16T12:03:40.435Z,34
2018-06-16T12:04:42.458Z,35
2018-06-16T12:05:44.768Z,35
2018-06-16T12:06:47.557Z,35
2018-06-16T12:07:49.583Z,36
2018-06-16T12:08:51.591Z,36
2018-06-16T12:09:53.622Z,33
2018-06-16T12:10:55.637Z,34
2018-06-16T12:11:57.657Z,34
2018-06-16T12:12:59.671Z,35
2018-06-16T12:14:01.682Z,35
2018-06-16T12:15:04.284Z,35
2018-06-16T12:16:06.589Z,35
2018-06-16T12:17:08.598Z,36
2018-06-16T12:18:10.619Z,36
2018-06-16T12:19:12.642Z,37
2018-06-16T12:20:14.653Z,40
2018-06-16T12:21:16.665Z,37
2018-06-16T12:22:18.963Z,37
2018-06-16T12:23:20.983Z,36
2018-06-16T12:24:22.997Z,36
2018-06-16T12:25:25.016Z,37
2018-06-16T12:26:27.037Z,36
2018-06-16T12:27:29.324Z,35
2018-06-16T12:28:31.330Z,36
2018-06-16T12:29:33.343Z,36
2018-06-16T12:30:35.643Z,36
2018-06-16T12:31:37.658Z,36
2018-06-16T12:32:39.950Z,36
2018-06-16T12:33:41.969Z,36
2018-06-16T12:34:44.282Z,36
2018-06-16T12:35:46.283Z,36
2018-06-16T12:36:48.301Z,36
2018-06-16T12:37:50.321Z,34
2018-06-16T12:38:52.325Z,34
2018-06-16T12:39:54.354Z,34
2018-06-16T12:40:56.366Z,35
2018-06-16T12:41:58.371Z,35
2018-06-16T12:43:01.047Z,35
2018-06-16T12:44:03.059Z,35
2018-06-16T12:45:05.090Z,35
2018-06-16T12:46:07.102Z,35
2018-06-16T12:47:09.131Z,36
2018-06-16T12:48:11.425Z,36
2018-06-16T12:49:13.768Z,35
2018-06-16T12:50:15.785Z,35
2018-06-16T12:51:18.079Z,35
2018-06-16T12:52:20.101Z,35
2018-06-16T12:53:22.117Z,35
2018-06-16T12:54:24.136Z,35
2018-06-16T12:55:26.432Z,35
2018-06-16T12:56:28.750Z,36
2018-06-16T12:57:30.746Z,37
2018-06-16T12:58:33.044Z,36
2018-06-16T12:59:35.061Z,35
2018-06-16T13:00:37.067Z,36
2018-06-16T13:01:39.087Z,36
2018-06-16T13:02:41.691Z,35
2018-06-16T13:03:43.704Z,36
2018-06-16T13:04:45.718Z,36
2018-06-16T13:05:47.735Z,36
2018-06-16T13:06:49.753Z,36
2018-06-16T13:07:52.066Z,36
2018-06-16T13:08:54.358Z,36
2018-06-16T13:09:56.374Z,36
2018-06-16T13:10:58.389Z,36
2018-06-16T13:12:00.792Z,36
2018-06-16T13:13:03.089Z,36
2018-06-16T13:14:05.111Z,36
2018-06-16T13:15:07.129Z,37
2018-06-16T13:16:09.143Z,36
2018-06-16T13:17:11.150Z,36
2018-06-16T13:18:13.193Z,36
2018-06-16T13:19:15.557Z,36
2018-06-16T13:20:17.582Z,36
2018-06-16T13:21:19.580Z,36
2018-06-16T13:22:21.608Z,36
2018-06-16T13:23:23.617Z,36
2018-06-16T13:24:25.904Z,36
2018-06-16T13:25:27.913Z,36
2018-06-16T13:26:30.317Z,36
2018-06-16T13:27:32.333Z,35
2018-06-16T13:28:34.350Z,36
2018-06-16T13:29:36.352Z,35
2018-06-16T13:30:38.377Z,36
2018-06-16T13:31:40.378Z,36
2018-06-16T13:32:42.775Z,36
2018-06-16T13:33:44.793Z,35
2018-06-16T13:34:46.802Z,35
2018-06-16T13:35:48.816Z,34
2018-06-16T13:36:51.105Z,35
2018-06-16T13:37:53.124Z,34
2018-06-16T13:38:55.142Z,35
2018-06-16T13:39:57.144Z,35
2018-06-16T13:40:59.171Z,35
2018-06-16T13:42:01.179Z,35
2018-06-16T13:43:03.214Z,35
2018-06-16T13:44:05.207Z,35
2018-06-16T13:45:07.226Z,35
2018-06-16T13:46:09.240Z,35
2018-06-16T13:47:11.248Z,35
2018-06-16T13:48:13.246Z,35
2018-06-16T13:49:15.577Z,35
2018-06-16T13:50:17.593Z,34
2018-06-16T13:51:19.938Z,35
2018-06-16T13:52:22.244Z,35
2018-06-16T13:53:24.255Z,35
2018-06-16T13:54:26.275Z,35
2018-06-16T13:55:28.316Z,35
2018-06-16T13:56:30.463Z,34
2018-06-16T13:57:32.780Z,34
2018-06-16T13:58:35.093Z,35
2018-06-16T13:59:37.549Z,35
2018-06-16T14:00:39.997Z,35
2018-06-16T14:01:42.295Z,35
2018-06-16T14:02:44.739Z,34
2018-06-16T14:03:47.039Z,34
2018-06-16T14:04:49.055Z,34
2018-06-16T14:05:51.085Z,34
2018-06-16T14:06:53.113Z,34
2018-06-16T14:07:55.123Z,35
2018-06-16T14:08:57.158Z,35
2018-06-16T14:09:59.187Z,35
2018-06-16T14:11:01.230Z,34
2018-06-16T14:12:03.521Z,34
2018-06-16T14:13:05.536Z,32
2018-06-16T14:14:07.686Z,32
2018-06-16T14:15:09.873Z,32
2018-06-16T14:16:12.018Z,33
2018-06-16T14:17:14.298Z,33
2018-06-16T14:18:17.984Z,34
2018-06-16T14:19:21.501Z,33
2018-06-16T14:20:23.924Z,32
2018-06-16T14:21:26.187Z,32
2018-06-16T14:22:28.237Z,32
2018-06-16T14:23:31.137Z,33
2018-06-16T14:24:36.116Z,32
2018-06-16T14:25:40.761Z,32
2018-06-16T14:26:45.753Z,32
2018-06-16T14:27:48.593Z,32
2018-06-16T14:28:54.453Z,32
2018-06-16T14:30:03.038Z,32
2018-06-16T14:31:08.925Z,33
2018-06-16T14:32:12.117Z,33
2018-06-16T14:33:14.975Z,33
2018-06-16T14:34:17.799Z,33
2018-06-16T14:35:20.897Z,33
2018-06-16T14:36:25.489Z,33
2018-06-16T14:37:29.927Z,34
2018-06-16T14:38:33.626Z,33
2018-06-16T14:39:36.762Z,33
2018-06-16T14:40:41.306Z,33
2018-06-16T14:41:46.379Z,34
2018-06-16T14:42:50.963Z,35
2018-06-16T14:43:54.962Z,33
2018-06-16T14:44:57.831Z,34
2018-06-16T14:46:01.335Z,34